sensor_id;sensor_type;location;lat;lon;timestamp;pressure;altitude;pressure_sealevel;temperature;humidity
3260;BME280;68938;48.150;14.004;2023-04-20T00:00:53;98031.97;;;10.43;70.01
3260;BME280;68938;48.150;14.004;2023-04-20T00:03:19;98042.81;;;10.51;69.80
3260;BME280;68938;48.150;14.004;2023-04-20T00:05:47;98045.31;;;10.53;69.82
3260;BME280;68938;48.150;14.004;2023-04-20T00:08:15;98047.75;;;10.57;69.92
3260;BME280;68938;48.150;14.004;2023-04-20T00:10:43;98039.22;;;10.57;69.71
3260;BME280;68938;48.150;14.004;2023-04-20T00:13:11;98043.38;;;10.61;70.08
3260;BME280;68938;48.150;14.004;2023-04-20T00:15:38;98034.00;;;10.60;69.76
3260;BME280;68938;48.150;14.004;2023-04-20T00:18:05;98027.25;;;10.57;70.04
3260;BME280;68938;48.150;14.004;2023-04-20T00:20:32;98027.25;;;10.57;69.93
3260;BME280;68938;48.150;14.004;2023-04-20T00:23:00;98022.13;;;10.56;69.87
3260;BME280;68938;48.150;14.004;2023-04-20T00:25:27;98025.53;;;10.56;69.52
3260;BME280;68938;48.150;14.004;2023-04-20T00:27:55;98023.03;;;10.55;69.79
3260;BME280;68938;48.150;14.004;2023-04-20T00:30:22;98030.63;;;10.58;69.87
3260;BME280;68938;48.150;14.004;2023-04-20T00:32:49;98013.63;;;10.55;69.71
3260;BME280;68938;48.150;14.004;2023-04-20T00:35:16;98016.19;;;10.55;69.45
3260;BME280;68938;48.150;14.004;2023-04-20T00:37:43;98019.47;;;10.59;69.60
3260;BME280;68938;48.150;14.004;2023-04-20T00:40:10;98005.00;;;10.58;69.70
3260;BME280;68938;48.150;14.004;2023-04-20T00:42:37;98008.47;;;10.55;69.44
3260;BME280;68938;48.150;14.004;2023-04-20T00:45:05;98009.31;;;10.56;69.44
3260;BME280;68938;48.150;14.004;2023-04-20T00:47:32;98015.34;;;10.55;69.15
3260;BME280;68938;48.150;14.004;2023-04-20T00:49:59;98011.16;;;10.52;69.84
3260;BME280;68938;48.150;14.004;2023-04-20T00:52:26;98005.34;;;10.47;69.50
3260;BME280;68938;48.150;14.004;2023-04-20T00:54:53;98000.16;;;10.49;69.66
3260;BME280;68938;48.150;14.004;2023-04-20T00:57:21;98001.03;;;10.48;69.58
3260;BME280;68938;48.150;14.004;2023-04-20T00:59:49;97999.28;;;10.50;69.81
3260;BME280;68938;48.150;14.004;2023-04-20T01:02:16;97994.34;;;10.43;69.83
3260;BME280;68938;48.150;14.004;2023-04-20T01:04:45;97993.53;;;10.41;69.58
3260;BME280;68938;48.150;14.004;2023-04-20T01:07:12;97991.97;;;10.37;70.00
3260;BME280;68938;48.150;14.004;2023-04-20T01:09:39;97987.81;;;10.33;69.75
3260;BME280;68938;48.150;14.004;2023-04-20T01:12:08;97986.09;;;10.34;69.92
3260;BME280;68938;48.150;14.004;2023-04-20T01:14:36;97982.72;;;10.32;70.06
3260;BME280;68938;48.150;14.004;2023-04-20T01:17:03;97983.63;;;10.31;69.77
3260;BME280;68938;48.150;14.004;2023-04-20T01:19:31;97978.59;;;10.28;70.35
3260;BME280;68938;48.150;14.004;2023-04-20T01:21:58;97976.75;;;10.31;70.43
3260;BME280;68938;48.150;14.004;2023-04-20T01:24:25;97981.88;;;10.33;70.51
3260;BME280;68938;48.150;14.004;2023-04-20T01:26:52;97974.19;;;10.33;69.92
3260;BME280;68938;48.150;14.004;2023-04-20T01:29:19;97977.47;;;10.36;70.20
3260;BME280;68938;48.150;14.004;2023-04-20T01:31:46;97979.16;;;10.37;70.07
3260;BME280;68938;48.150;14.004;2023-04-20T01:34:13;97973.94;;;10.39;70.09
3260;BME280;68938;48.150;14.004;2023-04-20T01:36:40;97972.13;;;10.42;69.87
3260;BME280;68938;48.150;14.004;2023-04-20T01:39:07;97966.13;;;10.43;70.14
3260;BME280;68938;48.150;14.004;2023-04-20T01:41:34;97960.19;;;10.41;69.95
3260;BME280;68938;48.150;14.004;2023-04-20T01:44:01;97956.75;;;10.42;69.85
3260;BME280;68938;48.150;14.004;2023-04-20T01:46:28;97963.03;;;10.34;68.84
3260;BME280;68938;48.150;14.004;2023-04-20T01:48:55;97960.47;;;10.34;69.37
3260;BME280;68938;48.150;14.004;2023-04-20T01:51:22;97958.56;;;10.39;69.64
3260;BME280;68938;48.150;14.004;2023-04-20T01:53:49;97957.91;;;10.34;68.84
3260;BME280;68938;48.150;14.004;2023-04-20T01:56:15;97959.75;;;10.29;67.13
3260;BME280;68938;48.150;14.004;2023-04-20T01:58:42;97954.75;;;10.26;67.63
3260;BME280;68938;48.150;14.004;2023-04-20T02:01:09;97961.59;;;10.24;67.53
3260;BME280;68938;48.150;14.004;2023-04-20T02:03:36;97942.69;;;10.00;67.27
3260;BME280;68938;48.150;14.004;2023-04-20T02:06:04;97949.00;;;9.89;67.60
3260;BME280;68938;48.150;14.004;2023-04-20T02:08:31;97938.66;;;9.92;67.80
3260;BME280;68938;48.150;14.004;2023-04-20T02:10:58;97942.78;;;9.96;67.46
3260;BME280;68938;48.150;14.004;2023-04-20T02:13:25;97940.16;;;9.98;67.42
3260;BME280;68938;48.150;14.004;2023-04-20T02:15:52;97930.88;;;9.95;67.51
3260;BME280;68938;48.150;14.004;2023-04-20T02:18:19;97946.16;;;9.99;68.07
3260;BME280;68938;48.150;14.004;2023-04-20T02:20:46;97946.84;;;10.04;67.76
3260;BME280;68938;48.150;14.004;2023-04-20T02:23:13;97943.50;;;10.02;67.61
3260;BME280;68938;48.150;14.004;2023-04-20T02:25:40;97946.00;;;10.03;67.58
3260;BME280;68938;48.150;14.004;2023-04-20T02:28:07;97941.78;;;10.02;67.77
3260;BME280;68938;48.150;14.004;2023-04-20T02:30:34;97941.06;;;9.97;68.05
3260;BME280;68938;48.150;14.004;2023-04-20T02:33:01;97941.03;;;9.99;68.24
3260;BME280;68938;48.150;14.004;2023-04-20T02:35:28;97940.94;;;10.02;68.40
3260;BME280;68938;48.150;14.004;2023-04-20T02:37:55;97940.00;;;10.04;68.51
3260;BME280;68938;48.150;14.004;2023-04-20T02:40:21;97934.91;;;10.03;68.47
3260;BME280;68938;48.150;14.004;2023-04-20T02:42:49;97919.81;;;9.93;68.20
3260;BME280;68938;48.150;14.004;2023-04-20T02:45:16;97915.72;;;9.88;68.48
3260;BME280;68938;48.150;14.004;2023-04-20T02:47:42;97920.09;;;9.84;69.03
3260;BME280;68938;48.150;14.004;2023-04-20T02:50:10;97922.78;;;9.81;68.94
3260;BME280;68938;48.150;14.004;2023-04-20T02:52:37;97928.03;;;9.77;68.52
3260;BME280;68938;48.150;14.004;2023-04-20T02:55:05;97923.94;;;9.71;68.37
3260;BME280;68938;48.150;14.004;2023-04-20T02:57:33;97910.47;;;9.64;68.24
3260;BME280;68938;48.150;14.004;2023-04-20T03:00:00;97923.16;;;9.67;68.21
3260;BME280;68938;48.150;14.004;2023-04-20T03:02:26;97909.63;;;9.64;68.06
3260;BME280;68938;48.150;14.004;2023-04-20T03:04:53;97910.59;;;9.60;67.47
3260;BME280;68938;48.150;14.004;2023-04-20T03:07:20;97901.41;;;9.54;67.85
3260;BME280;68938;48.150;14.004;2023-04-20T03:09:47;97904.03;;;9.51;68.17
3260;BME280;68938;48.150;14.004;2023-04-20T03:12:14;97905.84;;;9.47;68.15
3260;BME280;68938;48.150;14.004;2023-04-20T03:14:41;97906.28;;;9.32;68.14
3260;BME280;68938;48.150;14.004;2023-04-20T03:17:08;97892.72;;;9.29;68.38
3260;BME280;68938;48.150;14.004;2023-04-20T03:19:35;97899.56;;;9.28;68.44
3260;BME280;68938;48.150;14.004;2023-04-20T03:22:02;97887.66;;;9.27;68.20
3260;BME280;68938;48.150;14.004;2023-04-20T03:24:29;97895.28;;;9.29;68.46
3260;BME280;68938;48.150;14.004;2023-04-20T03:26:56;97894.53;;;9.27;68.79
3260;BME280;68938;48.150;14.004;2023-04-20T03:29:23;97893.47;;;9.32;69.01
3260;BME280;68938;48.150;14.004;2023-04-20T03:31:50;97899.44;;;9.33;68.55
3260;BME280;68938;48.150;14.004;2023-04-20T03:34:16;97893.41;;;9.35;68.80
3260;BME280;68938;48.150;14.004;2023-04-20T03:36:43;97890.16;;;9.30;68.41
3260;BME280;68938;48.150;14.004;2023-04-20T03:39:10;97890.91;;;9.32;68.73
3260;BME280;68938;48.150;14.004;2023-04-20T03:41:37;97884.16;;;9.30;68.66
3260;BME280;68938;48.150;14.004;2023-04-20T03:44:04;97891.59;;;9.39;68.88
3260;BME280;68938;48.150;14.004;2023-04-20T03:46:31;97887.34;;;9.38;69.40
3260;BME280;68938;48.150;14.004;2023-04-20T03:48:58;97887.28;;;9.41;68.74
3260;BME280;68938;48.150;14.004;2023-04-20T03:51:25;97889.78;;;9.42;68.89
3260;BME280;68938;48.150;14.004;2023-04-20T03:53:51;97890.59;;;9.43;69.07
3260;BME280;68938;48.150;14.004;2023-04-20T03:56:18;97891.44;;;9.43;68.97
3260;BME280;68938;48.150;14.004;2023-04-20T03:58:45;97885.47;;;9.44;69.04
3260;BME280;68938;48.150;14.004;2023-04-20T04:01:12;97891.25;;;9.49;69.03
3260;BME280;68938;48.150;14.004;2023-04-20T04:03:39;97894.47;;;9.58;69.21
3260;BME280;68938;48.150;14.004;2023-04-20T04:06:08;97889.28;;;9.59;69.18
3260;BME280;68938;48.150;14.004;2023-04-20T04:08:35;97890.09;;;9.61;69.18
3260;BME280;68938;48.150;14.004;2023-04-20T04:11:02;97879.97;;;9.57;68.93
3260;BME280;68938;48.150;14.004;2023-04-20T04:13:29;97881.56;;;9.61;68.85
3260;BME280;68938;48.150;14.004;2023-04-20T04:15:59;97883.31;;;9.59;68.30
3260;BME280;68938;48.150;14.004;2023-04-20T04:18:26;97891.16;;;9.54;68.43
3260;BME280;68938;48.150;14.004;2023-04-20T04:20:53;97897.97;;;9.54;68.45
3260;BME280;68938;48.150;14.004;2023-04-20T04:23:20;97898.75;;;9.57;68.53
3260;BME280;68938;48.150;14.004;2023-04-20T04:25:47;97898.78;;;9.56;68.46
3260;BME280;68938;48.150;14.004;2023-04-20T04:28:14;97903.94;;;9.54;68.66
3260;BME280;68938;48.150;14.004;2023-04-20T04:30:41;97891.25;;;9.51;68.52
3260;BME280;68938;48.150;14.004;2023-04-20T04:33:07;97901.34;;;9.56;68.59
3260;BME280;68938;48.150;14.004;2023-04-20T04:35:34;97901.25;;;9.59;68.64
3260;BME280;68938;48.150;14.004;2023-04-20T04:38:01;97885.97;;;9.56;68.96
3260;BME280;68938;48.150;14.004;2023-04-20T04:40:28;97894.38;;;9.61;68.79
3260;BME280;68938;48.150;14.004;2023-04-20T04:42:55;97902.06;;;9.61;69.07
3260;BME280;68938;48.150;14.004;2023-04-20T04:45:22;97894.31;;;9.62;68.99
3260;BME280;68938;48.150;14.004;2023-04-20T04:47:49;97892.50;;;9.66;68.98
3260;BME280;68938;48.150;14.004;2023-04-20T04:50:16;97896.63;;;9.70;69.04
3260;BME280;68938;48.150;14.004;2023-04-20T04:52:44;97899.91;;;9.75;68.96
3260;BME280;68938;48.150;14.004;2023-04-20T04:55:11;97897.47;;;9.70;68.99
3260;BME280;68938;48.150;14.004;2023-04-20T04:57:40;97906.75;;;9.75;69.12
3260;BME280;68938;48.150;14.004;2023-04-20T05:00:08;97905.88;;;9.74;68.74
3260;BME280;68938;48.150;14.004;2023-04-20T05:02:35;97899.19;;;9.70;68.64
3260;BME280;68938;48.150;14.004;2023-04-20T05:05:02;97894.03;;;9.71;68.88
3260;BME280;68938;48.150;14.004;2023-04-20T05:07:29;97897.53;;;9.69;69.45
3260;BME280;68938;48.150;14.004;2023-04-20T05:09:56;97892.44;;;9.67;69.26
3260;BME280;68938;48.150;14.004;2023-04-20T05:12:23;97891.81;;;9.61;69.33
3260;BME280;68938;48.150;14.004;2023-04-20T05:14:51;97888.38;;;9.60;69.67
3260;BME280;68938;48.150;14.004;2023-04-20T05:17:18;97898.41;;;9.68;69.77
3260;BME280;68938;48.150;14.004;2023-04-20T05:19:45;97890.59;;;9.72;69.52
3260;BME280;68938;48.150;14.004;2023-04-20T05:22:14;97891.38;;;9.75;69.90
3260;BME280;68938;48.150;14.004;2023-04-20T05:24:41;97893.66;;;9.84;69.94
3260;BME280;68938;48.150;14.004;2023-04-20T05:27:08;97893.81;;;9.78;69.42
3260;BME280;68938;48.150;14.004;2023-04-20T05:29:36;97901.56;;;9.76;69.23
3260;BME280;68938;48.150;14.004;2023-04-20T05:32:04;97895.00;;;9.67;69.39
3260;BME280;68938;48.150;14.004;2023-04-20T05:34:31;97890.03;;;9.63;69.74
3260;BME280;68938;48.150;14.004;2023-04-20T05:36:58;97884.25;;;9.56;69.83
3260;BME280;68938;48.150;14.004;2023-04-20T05:39:25;97894.41;;;9.59;70.21
3260;BME280;68938;48.150;14.004;2023-04-20T05:41:51;97896.13;;;9.59;70.27
3260;BME280;68938;48.150;14.004;2023-04-20T05:44:18;97890.84;;;9.63;70.26
3260;BME280;68938;48.150;14.004;2023-04-20T05:46:45;97904.28;;;9.71;70.24
3260;BME280;68938;48.150;14.004;2023-04-20T05:49:12;97899.16;;;9.71;70.32
3260;BME280;68938;48.150;14.004;2023-04-20T05:51:39;97903.31;;;9.76;70.41
3260;BME280;68938;48.150;14.004;2023-04-20T05:54:06;97904.88;;;9.80;70.44
3260;BME280;68938;48.150;14.004;2023-04-20T05:56:33;97907.69;;;9.72;70.19
3260;BME280;68938;48.150;14.004;2023-04-20T05:59:00;97902.59;;;9.70;70.63
3260;BME280;68938;48.150;14.004;2023-04-20T06:01:27;97900.91;;;9.71;70.41
3260;BME280;68938;48.150;14.004;2023-04-20T06:03:54;97896.34;;;9.51;70.86
3260;BME280;68938;48.150;14.004;2023-04-20T06:06:21;97887.97;;;9.46;71.19
3260;BME280;68938;48.150;14.004;2023-04-20T06:08:48;97893.13;;;9.44;71.53
3260;BME280;68938;48.150;14.004;2023-04-20T06:11:15;97892.22;;;9.47;71.07
3260;BME280;68938;48.150;14.004;2023-04-20T06:13:42;97891.25;;;9.51;71.32
3260;BME280;68938;48.150;14.004;2023-04-20T06:16:09;97903.22;;;9.51;71.22
3260;BME280;68938;48.150;14.004;2023-04-20T06:18:36;97892.81;;;9.25;72.35
3260;BME280;68938;48.150;14.004;2023-04-20T06:21:03;97894.97;;;9.39;71.76
3260;BME280;68938;48.150;14.004;2023-04-20T06:23:30;97891.41;;;9.15;72.41
3260;BME280;68938;48.150;14.004;2023-04-20T06:25:57;97902.72;;;9.38;72.28
3260;BME280;68938;48.150;14.004;2023-04-20T06:28:24;97899.06;;;9.15;73.23
3260;BME280;68938;48.150;14.004;2023-04-20T06:30:51;97905.41;;;9.02;73.23
3260;BME280;68938;48.150;14.004;2023-04-20T06:33:18;97904.16;;;9.17;73.06
3260;BME280;68938;48.150;14.004;2023-04-20T06:35:45;97902.13;;;9.28;72.92
3260;BME280;68938;48.150;14.004;2023-04-20T06:38:12;97899.25;;;9.39;72.50
3260;BME280;68938;48.150;14.004;2023-04-20T06:40:39;97898.16;;;9.47;72.85
3260;BME280;68938;48.150;14.004;2023-04-20T06:43:05;97898.84;;;9.54;72.80
3260;BME280;68938;48.150;14.004;2023-04-20T06:45:32;97899.78;;;9.50;72.57
3260;BME280;68938;48.150;14.004;2023-04-20T06:47:59;97882.81;;;9.47;72.83
3260;BME280;68938;48.150;14.004;2023-04-20T06:50:26;97900.53;;;9.54;73.05
3260;BME280;68938;48.150;14.004;2023-04-20T06:52:53;97890.03;;;9.63;72.90
3260;BME280;68938;48.150;14.004;2023-04-20T06:55:20;97897.19;;;9.52;72.98
3260;BME280;68938;48.150;14.004;2023-04-20T06:57:47;97891.41;;;9.45;73.28
3260;BME280;68938;48.150;14.004;2023-04-20T07:00:14;97896.34;;;9.51;73.41
3260;BME280;68938;48.150;14.004;2023-04-20T07:02:49;97889.03;;;9.67;73.24
3260;BME280;68938;48.150;14.004;2023-04-20T07:05:17;97889.13;;;9.64;73.34
3260;BME280;68938;48.150;14.004;2023-04-20T07:07:44;97887.03;;;9.48;74.10
3260;BME280;68938;48.150;14.004;2023-04-20T07:10:12;97898.53;;;9.04;75.60
3260;BME280;68938;48.150;14.004;2023-04-20T07:12:41;97889.56;;;9.20;76.15
3260;BME280;68938;48.150;14.004;2023-04-20T07:15:10;97888.34;;;9.34;75.34
3260;BME280;68938;48.150;14.004;2023-04-20T07:17:37;97886.22;;;9.48;75.16
3260;BME280;68938;48.150;14.004;2023-04-20T07:20:06;97878.19;;;9.59;74.61
3260;BME280;68938;48.150;14.004;2023-04-20T07:22:34;97882.41;;;9.32;75.25
3260;BME280;68938;48.150;14.004;2023-04-20T07:25:04;97873.72;;;9.08;76.14
3260;BME280;68938;48.150;14.004;2023-04-20T07:27:36;97869.50;;;9.05;76.32
3260;BME280;68938;48.150;14.004;2023-04-20T07:30:05;97883.13;;;9.37;75.80
3260;BME280;68938;48.150;14.004;2023-04-20T07:32:34;97874.56;;;9.38;75.71
3260;BME280;68938;48.150;14.004;2023-04-20T07:35:01;97869.03;;;9.22;75.96
3260;BME280;68938;48.150;14.004;2023-04-20T07:37:29;97877.94;;;9.09;76.46
3260;BME280;68938;48.150;14.004;2023-04-20T07:39:56;97874.38;;;9.14;76.32
3260;BME280;68938;48.150;14.004;2023-04-20T07:42:23;97860.28;;;9.31;75.67
3260;BME280;68938;48.150;14.004;2023-04-20T07:44:49;97862.03;;;9.29;76.34
3260;BME280;68938;48.150;14.004;2023-04-20T07:47:16;97868.69;;;9.34;76.53
3260;BME280;68938;48.150;14.004;2023-04-20T07:49:43;97870.53;;;9.29;75.97
3260;BME280;68938;48.150;14.004;2023-04-20T07:52:10;97869.44;;;9.38;76.42
3260;BME280;68938;48.150;14.004;2023-04-20T07:54:44;97856.81;;;9.32;75.86
3260;BME280;68938;48.150;14.004;2023-04-20T07:57:11;97855.72;;;9.11;76.25
3260;BME280;68938;48.150;14.004;2023-04-20T07:59:38;97857.97;;;9.21;76.84
3260;BME280;68938;48.150;14.004;2023-04-20T08:02:05;97857.44;;;9.10;76.86
3260;BME280;68938;48.150;14.004;2023-04-20T08:04:35;97855.22;;;9.28;75.60
3260;BME280;68938;48.150;14.004;2023-04-20T08:07:03;97843.19;;;9.31;75.55
3260;BME280;68938;48.150;14.004;2023-04-20T08:09:30;97846.16;;;9.45;75.73
3260;BME280;68938;48.150;14.004;2023-04-20T08:11:57;97849.47;;;9.21;76.21
3260;BME280;68938;48.150;14.004;2023-04-20T08:14:23;97850.28;;;9.51;75.43
3260;BME280;68938;48.150;14.004;2023-04-20T08:16:50;97841.19;;;9.41;75.53
3260;BME280;68938;48.150;14.004;2023-04-20T08:19:17;97846.97;;;9.18;76.13
3260;BME280;68938;48.150;14.004;2023-04-20T08:21:44;97839.72;;;9.04;76.51
3260;BME280;68938;48.150;14.004;2023-04-20T08:24:11;97832.69;;;9.11;77.61
3260;BME280;68938;48.150;14.004;2023-04-20T08:26:38;97831.97;;;9.06;77.38
3260;BME280;68938;48.150;14.004;2023-04-20T08:29:05;97833.09;;;8.97;78.26
3260;BME280;68938;48.150;14.004;2023-04-20T08:31:32;97823.28;;;9.13;77.33
3260;BME280;68938;48.150;14.004;2023-04-20T08:33:59;97825.09;;;9.37;76.64
3260;BME280;68938;48.150;14.004;2023-04-20T08:36:26;97820.66;;;9.42;75.59
3260;BME280;68938;48.150;14.004;2023-04-20T08:39:05;97820.09;;;9.33;76.71
3260;BME280;68938;48.150;14.004;2023-04-20T08:41:34;97813.41;;;9.29;76.83
3260;BME280;68938;48.150;14.004;2023-04-20T08:44:02;97812.81;;;9.20;76.57
3260;BME280;68938;48.150;14.004;2023-04-20T08:46:29;97808.16;;;9.61;76.26
3260;BME280;68938;48.150;14.004;2023-04-20T08:48:59;97807.44;;;9.83;75.89
3260;BME280;68938;48.150;14.004;2023-04-20T08:51:26;97813.59;;;10.04;75.23
3260;BME280;68938;48.150;14.004;2023-04-20T08:53:54;97812.03;;;10.26;74.12
3260;BME280;68938;48.150;14.004;2023-04-20T08:56:36;97809.47;;;10.25;74.24
3260;BME280;68938;48.150;14.004;2023-04-20T08:59:05;97812.59;;;10.34;72.65
3260;BME280;68938;48.150;14.004;2023-04-20T09:01:32;97820.47;;;10.30;72.55
3260;BME280;68938;48.150;14.004;2023-04-20T09:04:02;97819.72;;;10.26;72.83
3260;BME280;68938;48.150;14.004;2023-04-20T09:06:52;97823.22;;;10.22;73.36
3260;BME280;68938;48.150;14.004;2023-04-20T09:09:21;97814.31;;;10.09;72.94
3260;BME280;68938;48.150;14.004;2023-04-20T09:12:18;97829.22;;;9.96;72.62
3260;BME280;68938;48.150;14.004;2023-04-20T09:14:48;97818.53;;;9.83;73.11
3260;BME280;68938;48.150;14.004;2023-04-20T09:17:16;97818.91;;;10.26;73.70
3260;BME280;68938;48.150;14.004;2023-04-20T09:19:50;97811.19;;;10.51;71.90
3260;BME280;68938;48.150;14.004;2023-04-20T09:22:32;97811.31;;;10.21;71.85
3260;BME280;68938;48.150;14.004;2023-04-20T09:27:57;97809.03;;;10.38;71.51
3260;BME280;68938;48.150;14.004;2023-04-20T09:30:46;97801.84;;;10.23;73.29
3260;BME280;68938;48.150;14.004;2023-04-20T09:33:14;97798.53;;;10.46;72.02
3260;BME280;68938;48.150;14.004;2023-04-20T09:35:42;97798.91;;;10.84;70.29
3260;BME280;68938;48.150;14.004;2023-04-20T09:38:14;97803.41;;;10.77;70.73
3260;BME280;68938;48.150;14.004;2023-04-20T09:40:42;97802.66;;;11.21;70.77
3260;BME280;68938;48.150;14.004;2023-04-20T09:43:18;97784.97;;;11.13;69.13
3260;BME280;68938;48.150;14.004;2023-04-20T09:45:45;97793.63;;;10.87;69.38
3260;BME280;68938;48.150;14.004;2023-04-20T09:48:12;97779.22;;;11.06;70.09
3260;BME280;68938;48.150;14.004;2023-04-20T09:50:39;97788.28;;;11.38;70.12
3260;BME280;68938;48.150;14.004;2023-04-20T09:53:16;97781.03;;;11.48;69.20
3260;BME280;68938;48.150;14.004;2023-04-20T09:55:46;97769.72;;;11.32;68.53
3260;BME280;68938;48.150;14.004;2023-04-20T09:58:17;97775.03;;;11.49;68.35
3260;BME280;68938;48.150;14.004;2023-04-20T10:00:45;97773.53;;;11.44;68.65
3260;BME280;68938;48.150;14.004;2023-04-20T10:03:16;97775.81;;;11.72;67.41
3260;BME280;68938;48.150;14.004;2023-04-20T10:05:44;97758.59;;;11.09;68.22
3260;BME280;68938;48.150;14.004;2023-04-20T10:08:11;97776.75;;;11.27;68.72
3260;BME280;68938;48.150;14.004;2023-04-20T10:10:43;97772.66;;;11.65;68.10
3260;BME280;68938;48.150;14.004;2023-04-20T10:13:11;97777.09;;;11.61;67.96
3260;BME280;68938;48.150;14.004;2023-04-20T10:15:39;97773.25;;;11.72;68.27
3260;BME280;68938;48.150;14.004;2023-04-20T10:18:20;97770.16;;;11.63;66.88
3260;BME280;68938;48.150;14.004;2023-04-20T10:20:50;97766.31;;;11.53;68.54
3260;BME280;68938;48.150;14.004;2023-04-20T10:23:18;97760.91;;;12.02;67.98
3260;BME280;68938;48.150;14.004;2023-04-20T10:25:58;97747.03;;;12.26;65.93
3260;BME280;68938;48.150;14.004;2023-04-20T10:28:37;97748.16;;;12.40;66.35
3260;BME280;68938;48.150;14.004;2023-04-20T10:31:06;97740.69;;;12.15;66.46
3260;BME280;68938;48.150;14.004;2023-04-20T10:33:34;97749.53;;;12.28;67.11
3260;BME280;68938;48.150;14.004;2023-04-20T10:36:00;97741.03;;;12.46;66.59
3260;BME280;68938;48.150;14.004;2023-04-20T10:38:32;97733.16;;;12.68;66.50
3260;BME280;68938;48.150;14.004;2023-04-20T10:41:11;97729.06;;;12.64;65.98
3260;BME280;68938;48.150;14.004;2023-04-20T10:43:39;97738.97;;;12.92;65.30
3260;BME280;68938;48.150;14.004;2023-04-20T10:46:13;97701.50;;;13.04;65.40
3260;BME280;68938;48.150;14.004;2023-04-20T10:48:53;97723.31;;;13.52;65.25
3260;BME280;68938;48.150;14.004;2023-04-20T10:51:23;97724.38;;;13.48;64.64
3260;BME280;68938;48.150;14.004;2023-04-20T10:54:01;97711.63;;;13.80;63.55
3260;BME280;68938;48.150;14.004;2023-04-20T10:56:40;97709.81;;;13.99;62.78
3260;BME280;68938;48.150;14.004;2023-04-20T10:59:10;97704.50;;;14.02;62.24
3260;BME280;68938;48.150;14.004;2023-04-20T11:01:39;97702.16;;;14.31;61.15
3260;BME280;68938;48.150;14.004;2023-04-20T11:04:08;97689.00;;;14.35;60.83
3260;BME280;68938;48.150;14.004;2023-04-20T11:06:37;97698.22;;;13.73;60.92
3260;BME280;68938;48.150;14.004;2023-04-20T11:09:26;97704.06;;;13.59;62.85
3260;BME280;68938;48.150;14.004;2023-04-20T11:12:03;97687.88;;;13.90;62.22
3260;BME280;68938;48.150;14.004;2023-04-20T11:14:38;97694.72;;;14.09;62.20
3260;BME280;68938;48.150;14.004;2023-04-20T11:17:17;97689.47;;;14.10;61.32
3260;BME280;68938;48.150;14.004;2023-04-20T11:19:44;97694.22;;;14.18;61.65
3260;BME280;68938;48.150;14.004;2023-04-20T11:22:20;97685.78;;;13.81;62.30
3260;BME280;68938;48.150;14.004;2023-04-20T11:24:47;97686.25;;;14.22;62.95
3260;BME280;68938;48.150;14.004;2023-04-20T11:27:19;97670.69;;;14.57;62.24
3260;BME280;68938;48.150;14.004;2023-04-20T11:29:55;97674.03;;;14.91;61.80
3260;BME280;68938;48.150;14.004;2023-04-20T11:32:23;97666.50;;;15.02;61.45
3260;BME280;68938;48.150;14.004;2023-04-20T11:35:05;97667.34;;;15.19;61.25
3260;BME280;68938;48.150;14.004;2023-04-20T11:37:49;97663.91;;;15.18;60.94
3260;BME280;68938;48.150;14.004;2023-04-20T11:40:16;97647.22;;;15.54;59.98
3260;BME280;68938;48.150;14.004;2023-04-20T11:42:43;97653.06;;;15.57;59.25
3260;BME280;68938;48.150;14.004;2023-04-20T11:45:10;97652.56;;;15.67;57.75
3260;BME280;68938;48.150;14.004;2023-04-20T11:47:38;97660.97;;;15.54;57.76
3260;BME280;68938;48.150;14.004;2023-04-20T11:50:06;97648.34;;;15.64;58.69
3260;BME280;68938;48.150;14.004;2023-04-20T11:52:33;97644.78;;;15.36;57.92
3260;BME280;68938;48.150;14.004;2023-04-20T11:55:00;97657.34;;;15.43;58.89
3260;BME280;68938;48.150;14.004;2023-04-20T11:57:27;97655.34;;;15.62;59.09
3260;BME280;68938;48.150;14.004;2023-04-20T11:59:54;97653.09;;;15.72;58.70
3260;BME280;68938;48.150;14.004;2023-04-20T12:02:21;97648.06;;;16.13;58.93
3260;BME280;68938;48.150;14.004;2023-04-20T12:04:48;97633.63;;;16.23;58.69
3260;BME280;68938;48.150;14.004;2023-04-20T12:07:15;97632.47;;;16.00;56.99
3260;BME280;68938;48.150;14.004;2023-04-20T12:09:42;97637.44;;;16.18;58.56
3260;BME280;68938;48.150;14.004;2023-04-20T12:12:09;97637.88;;;15.96;57.71
3260;BME280;68938;48.150;14.004;2023-04-20T12:14:36;97635.03;;;16.15;57.99
3260;BME280;68938;48.150;14.004;2023-04-20T12:17:03;97638.63;;;16.26;56.80
3260;BME280;68938;48.150;14.004;2023-04-20T12:19:31;97635.22;;;16.11;57.33
3260;BME280;68938;48.150;14.004;2023-04-20T12:21:58;97629.13;;;16.13;58.04
3260;BME280;68938;48.150;14.004;2023-04-20T12:24:24;97626.06;;;16.06;57.14
3260;BME280;68938;48.150;14.004;2023-04-20T12:26:51;97630.09;;;16.53;59.12
3260;BME280;68938;48.150;14.004;2023-04-20T12:29:18;97627.06;;;16.46;57.63
3260;BME280;68938;48.150;14.004;2023-04-20T12:31:45;97610.66;;;16.60;57.15
3260;BME280;68938;48.150;14.004;2023-04-20T12:34:12;97619.13;;;16.35;58.77
3260;BME280;68938;48.150;14.004;2023-04-20T12:36:39;97616.81;;;16.45;57.93
3260;BME280;68938;48.150;14.004;2023-04-20T12:39:06;97607.94;;;16.49;58.00
3260;BME280;68938;48.150;14.004;2023-04-20T12:41:33;97607.69;;;16.66;57.00
3260;BME280;68938;48.150;14.004;2023-04-20T12:44:00;97601.13;;;17.02;57.75
3260;BME280;68938;48.150;14.004;2023-04-20T12:46:41;97602.75;;;17.30;55.38
3260;BME280;68938;48.150;14.004;2023-04-20T12:49:08;97614.25;;;16.99;55.50
3260;BME280;68938;48.150;14.004;2023-04-20T12:51:35;97596.75;;;16.90;56.00
3260;BME280;68938;48.150;14.004;2023-04-20T12:54:02;97606.44;;;17.13;55.76
3260;BME280;68938;48.150;14.004;2023-04-20T12:56:29;97590.53;;;16.92;55.97
3260;BME280;68938;48.150;14.004;2023-04-20T12:58:56;97587.56;;;17.11;56.23
3260;BME280;68938;48.150;14.004;2023-04-20T13:01:22;97573.03;;;17.09;56.40
3260;BME280;68938;48.150;14.004;2023-04-20T13:03:50;97584.22;;;16.96;56.63
3260;BME280;68938;48.150;14.004;2023-04-20T13:06:17;97582.66;;;16.94;55.88
3260;BME280;68938;48.150;14.004;2023-04-20T13:08:44;97586.69;;;16.98;56.55
3260;BME280;68938;48.150;14.004;2023-04-20T13:11:11;97569.69;;;16.94;56.58
3260;BME280;68938;48.150;14.004;2023-04-20T13:13:39;97574.84;;;16.67;56.02